sensor_id;sensor_type;location;lat;lon;timestamp;pressure;altitude;pressure_sealevel;temperature;humidity
29247;BME280;16272;48.188;9.964;2023-03-04T00:00:03;96210.47;;;-0.80;77.02
29247;BME280;16272;48.188;9.964;2023-03-04T00:02:29;96219.69;;;-0.92;76.86
29247;BME280;16272;48.188;9.964;2023-03-04T00:04:54;96214.63;;;-1.14;77.89
29247;BME280;16272;48.188;9.964;2023-03-04T00:07:19;96213.31;;;-1.23;77.43
29247;BME280;16272;48.188;9.964;2023-03-04T00:09:45;96216.91;;;-1.46;78.48
29247;BME280;16272;48.188;9.964;2023-03-04T00:12:11;96218.50;;;-1.62;79.00
29247;BME280;16272;48.188;9.964;2023-03-04T00:14:36;96219.13;;;-1.37;79.87
29247;BME280;16272;48.188;9.964;2023-03-04T00:17:02;96219.84;;;-1.14;77.44
29247;BME280;16272;48.188;9.964;2023-03-04T00:19:29;96218.38;;;-1.01;74.48
29247;BME280;16272;48.188;9.964;2023-03-04T00:21:54;96220.13;;;-1.01;76.14
29247;BME280;16272;48.188;9.964;2023-03-04T00:24:19;96223.06;;;-1.28;76.19
29247;BME280;16272;48.188;9.964;2023-03-04T00:26:45;96219.66;;;-1.09;76.30
29247;BME280;16272;48.188;9.964;2023-03-04T00:29:10;96224.63;;;-1.24;76.78
29247;BME280;16272;48.188;9.964;2023-03-04T00:31:36;96216.69;;;-1.60;78.54
29247;BME280;16272;48.188;9.964;2023-03-04T00:34:01;96216.25;;;-1.31;77.19
29247;BME280;16272;48.188;9.964;2023-03-04T00:36:26;96218.38;;;-1.59;78.18
29247;BME280;16272;48.188;9.964;2023-03-04T00:38:51;96212.56;;;-1.26;76.47
29247;BME280;16272;48.188;9.964;2023-03-04T00:41:17;96220.88;;;-1.77;79.63
29247;BME280;16272;48.188;9.964;2023-03-04T00:43:42;96215.28;;;-1.88;80.16
29247;BME280;16272;48.188;9.964;2023-03-04T00:46:07;96216.66;;;-1.40;77.92
29247;BME280;16272;48.188;9.964;2023-03-04T00:48:33;96218.44;;;-1.21;76.51
29247;BME280;16272;48.188;9.964;2023-03-04T00:50:58;96210.88;;;-1.46;77.82
29247;BME280;16272;48.188;9.964;2023-03-04T00:53:23;96209.38;;;-1.52;76.68
29247;BME280;16272;48.188;9.964;2023-03-04T00:55:49;96209.81;;;-1.82;78.00
29247;BME280;16272;48.188;9.964;2023-03-04T00:58:14;96216.56;;;-1.78;78.31
29247;BME280;16272;48.188;9.964;2023-03-04T01:00:39;96218.72;;;-1.67;78.39
29247;BME280;16272;48.188;9.964;2023-03-04T01:03:05;96209.09;;;-1.86;79.10
29247;BME280;16272;48.188;9.964;2023-03-04T01:05:30;96211.00;;;-2.10;79.33
29247;BME280;16272;48.188;9.964;2023-03-04T01:07:58;96207.88;;;-2.18;79.61
29247;BME280;16272;48.188;9.964;2023-03-04T01:10:23;96208.44;;;-2.11;79.77
29247;BME280;16272;48.188;9.964;2023-03-04T01:12:49;96209.13;;;-2.28;81.15
29247;BME280;16272;48.188;9.964;2023-03-04T01:15:14;96213.00;;;-2.59;82.54
29247;BME280;16272;48.188;9.964;2023-03-04T01:17:39;96211.84;;;-2.52;82.58
29247;BME280;16272;48.188;9.964;2023-03-04T01:20:06;96199.13;;;-2.17;81.32
29247;BME280;16272;48.188;9.964;2023-03-04T01:22:32;96208.97;;;-1.82;79.52
29247;BME280;16272;48.188;9.964;2023-03-04T01:24:57;96199.69;;;-1.69;78.22
29247;BME280;16272;48.188;9.964;2023-03-04T01:27:22;96199.34;;;-2.01;78.27
29247;BME280;16272;48.188;9.964;2023-03-04T01:29:48;96195.22;;;-1.86;77.80
29247;BME280;16272;48.188;9.964;2023-03-04T01:32:13;96193.69;;;-1.90;77.81
29247;BME280;16272;48.188;9.964;2023-03-04T01:34:38;96191.72;;;-2.06;78.35
29247;BME280;16272;48.188;9.964;2023-03-04T01:37:04;96175.03;;;-1.81;77.42
29247;BME280;16272;48.188;9.964;2023-03-04T01:39:29;96182.34;;;-1.89;77.67
29247;BME280;16272;48.188;9.964;2023-03-04T01:41:55;96186.06;;;-2.15;78.33
29247;BME280;16272;48.188;9.964;2023-03-04T01:44:20;96184.03;;;-2.29;79.66
29247;BME280;16272;48.188;9.964;2023-03-04T01:46:51;96190.03;;;-2.49;81.33
29247;BME280;16272;48.188;9.964;2023-03-04T01:49:18;96180.97;;;-2.18;78.54
29247;BME280;16272;48.188;9.964;2023-03-04T01:51:48;96181.56;;;-2.75;79.91
29247;BME280;16272;48.188;9.964;2023-03-04T01:54:15;96183.63;;;-2.41;79.25
29247;BME280;16272;48.188;9.964;2023-03-04T01:56:43;96181.03;;;-2.41;79.70
29247;BME280;16272;48.188;9.964;2023-03-04T01:59:21;96174.78;;;-2.79;82.20
29247;BME280;16272;48.188;9.964;2023-03-04T02:01:49;96176.47;;;-2.78;81.79
29247;BME280;16272;48.188;9.964;2023-03-04T02:04:17;96175.91;;;-2.64;81.37
29247;BME280;16272;48.188;9.964;2023-03-04T02:06:43;96158.78;;;-2.48;80.79
29247;BME280;16272;48.188;9.964;2023-03-04T02:09:10;96162.19;;;-2.25;78.94
29247;BME280;16272;48.188;9.964;2023-03-04T02:11:37;96154.00;;;-2.16;78.38
29247;BME280;16272;48.188;9.964;2023-03-04T02:14:02;96153.06;;;-2.35;78.90
29247;BME280;16272;48.188;9.964;2023-03-04T02:16:28;96160.56;;;-2.28;78.44
29247;BME280;16272;48.188;9.964;2023-03-04T02:18:54;96154.25;;;-2.22;78.21
29247;BME280;16272;48.188;9.964;2023-03-04T02:21:28;96147.47;;;-1.85;77.09
29247;BME280;16272;48.188;9.964;2023-03-04T02:26:40;96156.69;;;-2.60;80.87
29247;BME280;16272;48.188;9.964;2023-03-04T02:29:09;96156.75;;;-2.41;78.83
29247;BME280;16272;48.188;9.964;2023-03-04T02:31:36;96149.47;;;-2.53;78.78
29247;BME280;16272;48.188;9.964;2023-03-04T02:34:29;96159.81;;;-2.31;79.32
29247;BME280;16272;48.188;9.964;2023-03-04T02:36:53;96153.16;;;-2.16;78.92
29247;BME280;16272;48.188;9.964;2023-03-04T02:41:45;96162.56;;;-2.99;82.26
29247;BME280;16272;48.188;9.964;2023-03-04T02:44:16;96170.94;;;-3.13;82.90
29247;BME280;16272;48.188;9.964;2023-03-04T02:46:42;96162.47;;;-2.96;83.61
29247;BME280;16272;48.188;9.964;2023-03-04T02:49:07;96165.84;;;-2.72;81.50
29247;BME280;16272;48.188;9.964;2023-03-04T02:51:32;96159.31;;;-2.40;79.07
29247;BME280;16272;48.188;9.964;2023-03-04T02:53:58;96151.38;;;-2.36;78.65
29247;BME280;16272;48.188;9.964;2023-03-04T02:56:23;96147.66;;;-2.51;78.98
29247;BME280;16272;48.188;9.964;2023-03-04T02:58:48;96146.56;;;-2.46;78.47
29247;BME280;16272;48.188;9.964;2023-03-04T03:01:14;96151.78;;;-2.46;78.45
29247;BME280;16272;48.188;9.964;2023-03-04T03:03:39;96145.00;;;-2.50;78.47
29247;BME280;16272;48.188;9.964;2023-03-04T03:06:04;96144.22;;;-2.31;77.23
29247;BME280;16272;48.188;9.964;2023-03-04T03:08:30;96148.97;;;-2.41;78.18
29247;BME280;16272;48.188;9.964;2023-03-04T03:10:55;96151.56;;;-2.41;77.89
29247;BME280;16272;48.188;9.964;2023-03-04T03:13:20;96152.84;;;-2.51;78.01
29247;BME280;16272;48.188;9.964;2023-03-04T03:15:46;96159.84;;;-2.74;78.66
29247;BME280;16272;48.188;9.964;2023-03-04T03:18:11;96155.56;;;-2.75;78.93
29247;BME280;16272;48.188;9.964;2023-03-04T03:20:36;96153.50;;;-2.89;78.88
29247;BME280;16272;48.188;9.964;2023-03-04T03:23:02;96147.09;;;-2.80;79.11
29247;BME280;16272;48.188;9.964;2023-03-04T03:25:28;96147.34;;;-2.44;77.17
29247;BME280;16272;48.188;9.964;2023-03-04T03:27:53;96162.59;;;-2.77;78.95
29247;BME280;16272;48.188;9.964;2023-03-04T03:30:19;96154.69;;;-2.75;78.25
29247;BME280;16272;48.188;9.964;2023-03-04T03:32:44;96163.31;;;-3.41;80.86
29247;BME280;16272;48.188;9.964;2023-03-04T03:35:10;96157.56;;;-3.49;82.82
29247;BME280;16272;48.188;9.964;2023-03-04T03:37:36;96156.09;;;-3.33;82.40
29247;BME280;16272;48.188;9.964;2023-03-04T03:40:02;96158.56;;;-3.30;82.91
29247;BME280;16272;48.188;9.964;2023-03-04T03:42:27;96158.34;;;-3.24;81.46
29247;BME280;16272;48.188;9.964;2023-03-04T03:44:52;96155.25;;;-3.34;82.37
29247;BME280;16272;48.188;9.964;2023-03-04T03:47:18;96153.28;;;-3.05;80.34
29247;BME280;16272;48.188;9.964;2023-03-04T03:49:43;96162.22;;;-2.90;79.59
29247;BME280;16272;48.188;9.964;2023-03-04T03:52:08;96160.06;;;-2.79;78.82
29247;BME280;16272;48.188;9.964;2023-03-04T03:54:34;96150.31;;;-3.18;80.93
29247;BME280;16272;48.188;9.964;2023-03-04T03:56:59;96165.84;;;-3.40;82.03
29247;BME280;16272;48.188;9.964;2023-03-04T03:59:24;96157.03;;;-2.90;79.69
29247;BME280;16272;48.188;9.964;2023-03-04T04:01:50;96155.44;;;-3.62;82.55
29247;BME280;16272;48.188;9.964;2023-03-04T04:04:15;96170.75;;;-3.54;84.16
29247;BME280;16272;48.188;9.964;2023-03-04T04:06:41;96153.03;;;-3.21;81.83
29247;BME280;16272;48.188;9.964;2023-03-04T04:09:06;96162.53;;;-3.20;81.68
29247;BME280;16272;48.188;9.964;2023-03-04T04:11:31;96156.03;;;-3.32;82.29
29247;BME280;16272;48.188;9.964;2023-03-04T04:13:57;96155.31;;;-3.35;82.05
29247;BME280;16272;48.188;9.964;2023-03-04T04:16:22;96156.06;;;-3.55;82.38
29247;BME280;16272;48.188;9.964;2023-03-04T04:18:47;96158.06;;;-3.40;82.22
29247;BME280;16272;48.188;9.964;2023-03-04T04:21:13;96159.44;;;-3.07;80.51
29247;BME280;16272;48.188;9.964;2023-03-04T04:23:38;96154.97;;;-2.82;78.85
29247;BME280;16272;48.188;9.964;2023-03-04T04:26:04;96155.88;;;-2.83;78.31
29247;BME280;16272;48.188;9.964;2023-03-04T04:28:29;96158.47;;;-3.05;78.20
29247;BME280;16272;48.188;9.964;2023-03-04T04:30:54;96161.38;;;-3.12;78.66
29247;BME280;16272;48.188;9.964;2023-03-04T04:33:20;96160.59;;;-3.15;78.46
29247;BME280;16272;48.188;9.964;2023-03-04T04:35:45;96162.81;;;-3.27;78.53
29247;BME280;16272;48.188;9.964;2023-03-04T04:38:10;96159.31;;;-3.04;78.23
29247;BME280;16272;48.188;9.964;2023-03-04T04:40:36;96159.69;;;-2.91;77.71
29247;BME280;16272;48.188;9.964;2023-03-04T04:43:01;96154.34;;;-3.10;78.42
29247;BME280;16272;48.188;9.964;2023-03-04T04:45:27;96162.75;;;-3.49;80.44
29247;BME280;16272;48.188;9.964;2023-03-04T04:47:53;96155.94;;;-3.06;77.98
29247;BME280;16272;48.188;9.964;2023-03-04T04:50:21;96157.13;;;-3.15;77.93
29247;BME280;16272;48.188;9.964;2023-03-04T04:52:47;96163.63;;;-3.03;77.41
29247;BME280;16272;48.188;9.964;2023-03-04T04:55:12;96156.50;;;-2.98;77.41
29247;BME280;16272;48.188;9.964;2023-03-04T04:57:37;96164.50;;;-3.04;76.80
29247;BME280;16272;48.188;9.964;2023-03-04T05:00:06;96172.47;;;-3.31;79.25
29247;BME280;16272;48.188;9.964;2023-03-04T05:02:32;96164.47;;;-3.26;79.00
29247;BME280;16272;48.188;9.964;2023-03-04T05:05:04;96159.16;;;-3.00;77.32
29247;BME280;16272;48.188;9.964;2023-03-04T05:07:30;96158.59;;;-2.86;77.00
29247;BME280;16272;48.188;9.964;2023-03-04T05:09:57;96153.38;;;-2.86;76.28
29247;BME280;16272;48.188;9.964;2023-03-04T05:12:22;96159.78;;;-3.17;76.98
29247;BME280;16272;48.188;9.964;2023-03-04T05:14:47;96161.09;;;-3.28;77.24
29247;BME280;16272;48.188;9.964;2023-03-04T05:17:13;96165.84;;;-3.16;77.93
29247;BME280;16272;48.188;9.964;2023-03-04T05:19:38;96155.19;;;-3.32;77.68
29247;BME280;16272;48.188;9.964;2023-03-04T05:22:03;96160.97;;;-3.47;78.78
29247;BME280;16272;48.188;9.964;2023-03-04T05:24:29;96158.75;;;-3.58;78.71
29247;BME280;16272;48.188;9.964;2023-03-04T05:26:54;96155.72;;;-3.46;78.93
29247;BME280;16272;48.188;9.964;2023-03-04T05:29:19;96152.81;;;-3.85;80.14
29247;BME280;16272;48.188;9.964;2023-03-04T05:31:44;96157.44;;;-3.94;81.87
29247;BME280;16272;48.188;9.964;2023-03-04T05:34:10;96161.16;;;-4.01;82.59
29247;BME280;16272;48.188;9.964;2023-03-04T05:36:35;96157.94;;;-4.08;83.85
29247;BME280;16272;48.188;9.964;2023-03-04T05:39:01;96166.16;;;-3.95;83.87
29247;BME280;16272;48.188;9.964;2023-03-04T05:41:26;96159.50;;;-3.78;82.40
29247;BME280;16272;48.188;9.964;2023-03-04T05:43:51;96157.78;;;-3.79;82.10
29247;BME280;16272;48.188;9.964;2023-03-04T05:46:18;96158.63;;;-3.79;82.42
29247;BME280;16272;48.188;9.964;2023-03-04T05:48:51;96152.75;;;-3.84;81.87
29247;BME280;16272;48.188;9.964;2023-03-04T05:51:17;96156.75;;;-3.74;81.14
29247;BME280;16272;48.188;9.964;2023-03-04T05:53:44;96160.19;;;-3.73;80.80
29247;BME280;16272;48.188;9.964;2023-03-04T05:56:12;96168.25;;;-3.57;80.19
29247;BME280;16272;48.188;9.964;2023-03-04T05:58:38;96163.78;;;-3.54;80.48
29247;BME280;16272;48.188;9.964;2023-03-04T06:01:03;96172.38;;;-3.75;80.31
29247;BME280;16272;48.188;9.964;2023-03-04T06:03:29;96165.94;;;-3.89;81.97
29247;BME280;16272;48.188;9.964;2023-03-04T06:05:54;96174.28;;;-4.06;83.63
29247;BME280;16272;48.188;9.964;2023-03-04T06:08:20;96179.63;;;-4.10;82.60
29247;BME280;16272;48.188;9.964;2023-03-04T06:10:45;96179.47;;;-4.06;82.19
29247;BME280;16272;48.188;9.964;2023-03-04T06:13:11;96178.66;;;-4.06;81.62
29247;BME280;16272;48.188;9.964;2023-03-04T06:15:37;96180.75;;;-4.17;83.37
29247;BME280;16272;48.188;9.964;2023-03-04T06:18:04;96183.03;;;-4.08;83.10
29247;BME280;16272;48.188;9.964;2023-03-04T06:20:29;96183.63;;;-4.00;83.15
29247;BME280;16272;48.188;9.964;2023-03-04T06:22:57;96189.03;;;-3.82;82.71
29247;BME280;16272;48.188;9.964;2023-03-04T06:25:24;96188.88;;;-3.78;81.83
29247;BME280;16272;48.188;9.964;2023-03-04T06:27:49;96187.78;;;-3.47;81.10
29247;BME280;16272;48.188;9.964;2023-03-04T06:30:15;96186.88;;;-3.00;79.41
29247;BME280;16272;48.188;9.964;2023-03-04T06:32:41;96184.91;;;-3.17;80.64
29247;BME280;16272;48.188;9.964;2023-03-04T06:35:11;96194.63;;;-2.77;78.94
29247;BME280;16272;48.188;9.964;2023-03-04T06:37:37;96193.50;;;-2.49;78.58
29247;BME280;16272;48.188;9.964;2023-03-04T06:40:03;96200.41;;;-2.70;78.67
29247;BME280;16272;48.188;9.964;2023-03-04T06:42:30;96196.44;;;-2.79;79.52
29247;BME280;16272;48.188;9.964;2023-03-04T06:44:55;96205.13;;;-2.80;80.70
29247;BME280;16272;48.188;9.964;2023-03-04T06:47:20;96193.91;;;-2.80;81.98
29247;BME280;16272;48.188;9.964;2023-03-04T06:49:46;96191.38;;;-2.39;81.02
29247;BME280;16272;48.188;9.964;2023-03-04T06:52:11;96189.31;;;-1.90;79.66
29247;BME280;16272;48.188;9.964;2023-03-04T06:54:37;96188.78;;;-2.39;82.97
29247;BME280;16272;48.188;9.964;2023-03-04T06:57:03;96195.25;;;-2.49;83.17
29247;BME280;16272;48.188;9.964;2023-03-04T06:59:30;96194.00;;;-2.39;84.73
29247;BME280;16272;48.188;9.964;2023-03-04T07:01:56;96194.69;;;-2.35;84.58
29247;BME280;16272;48.188;9.964;2023-03-04T07:04:21;96193.34;;;-2.24;84.08
29247;BME280;16272;48.188;9.964;2023-03-04T07:06:47;96190.69;;;-2.22;84.29
29247;BME280;16272;48.188;9.964;2023-03-04T07:09:13;96191.59;;;-2.03;83.61
29247;BME280;16272;48.188;9.964;2023-03-04T07:11:38;96187.28;;;-1.83;84.18
29247;BME280;16272;48.188;9.964;2023-03-04T07:14:03;96195.69;;;-1.97;84.96
29247;BME280;16272;48.188;9.964;2023-03-04T07:16:29;96190.38;;;-2.14;84.45
29247;BME280;16272;48.188;9.964;2023-03-04T07:18:55;96197.81;;;-1.26;82.52
29247;BME280;16272;48.188;9.964;2023-03-04T07:21:21;96194.84;;;-1.37;83.10
29247;BME280;16272;48.188;9.964;2023-03-04T07:23:46;96200.88;;;-1.56;82.99
29247;BME280;16272;48.188;9.964;2023-03-04T07:26:12;96201.28;;;-1.46;83.24
29247;BME280;16272;48.188;9.964;2023-03-04T07:28:37;96200.88;;;-1.37;82.84
29247;BME280;16272;48.188;9.964;2023-03-04T07:31:21;96202.00;;;-0.85;82.50
29247;BME280;16272;48.188;9.964;2023-03-04T07:33:47;96202.13;;;-0.69;81.04
29247;BME280;16272;48.188;9.964;2023-03-04T07:36:13;96212.41;;;-0.12;78.25
29247;BME280;16272;48.188;9.964;2023-03-04T07:38:46;96210.00;;;0.18;77.86
29247;BME280;16272;48.188;9.964;2023-03-04T07:41:12;96209.03;;;0.21;77.69
29247;BME280;16272;48.188;9.964;2023-03-04T07:43:39;96211.72;;;0.36;78.09
29247;BME280;16272;48.188;9.964;2023-03-04T07:46:04;96204.00;;;1.16;74.82
29247;BME280;16272;48.188;9.964;2023-03-04T07:48:30;96206.69;;;1.62;73.26
29247;BME280;16272;48.188;9.964;2023-03-04T07:51:11;96207.28;;;1.52;73.83
29247;BME280;16272;48.188;9.964;2023-03-04T07:53:38;96209.94;;;2.86;69.87
29247;BME280;16272;48.188;9.964;2023-03-04T07:56:05;96208.59;;;3.07;69.50
29247;BME280;16272;48.188;9.964;2023-03-04T07:58:30;96200.38;;;4.74;66.82
29247;BME280;16272;48.188;9.964;2023-03-04T08:00:56;96200.63;;;5.08;62.09
29247;BME280;16272;48.188;9.964;2023-03-04T08:03:22;96210.75;;;4.88;63.45
29247;BME280;16272;48.188;9.964;2023-03-04T08:05:48;96204.94;;;6.42;59.13
29247;BME280;16272;48.188;9.964;2023-03-04T08:08:13;96201.91;;;6.83;58.64
29247;BME280;16272;48.188;9.964;2023-03-04T08:10:38;96198.72;;;8.33;56.60
29247;BME280;16272;48.188;9.964;2023-03-04T08:13:07;96183.16;;;8.39;52.24
29247;BME280;16272;48.188;9.964;2023-03-04T08:15:33;96191.72;;;8.43;55.52
29247;BME280;16272;48.188;9.964;2023-03-04T08:18:00;96193.84;;;9.72;52.60
29247;BME280;16272;48.188;9.964;2023-03-04T08:20:26;96186.66;;;10.53;49.92
29247;BME280;16272;48.188;9.964;2023-03-04T08:22:52;96173.78;;;10.19;48.78
29247;BME280;16272;48.188;9.964;2023-03-04T08:25:18;96172.22;;;10.45;49.83
29247;BME280;16272;48.188;9.964;2023-03-04T08:27:43;96168.53;;;10.85;50.22
29247;BME280;16272;48.188;9.964;2023-03-04T08:30:09;96180.69;;;8.05;50.56
29247;BME280;16272;48.188;9.964;2023-03-04T08:32:35;96184.44;;;9.18;48.95
29247;BME280;16272;48.188;9.964;2023-03-04T08:35:00;96189.56;;;8.37;50.94
29247;BME280;16272;48.188;9.964;2023-03-04T08:37:28;96196.38;;;7.08;54.60
29247;BME280;16272;48.188;9.964;2023-03-04T08:39:55;96202.31;;;5.83;62.38
29247;BME280;16272;48.188;9.964;2023-03-04T08:42:21;96204.88;;;4.72;62.44
29247;BME280;16272;48.188;9.964;2023-03-04T08:44:47;96197.84;;;6.32;64.95
29247;BME280;16272;48.188;9.964;2023-03-04T08:47:13;96201.59;;;5.44;60.96
29247;BME280;16272;48.188;9.964;2023-03-04T08:49:38;96198.31;;;6.25;65.40
29247;BME280;16272;48.188;9.964;2023-03-04T08:52:03;96199.78;;;5.81;64.76
29247;BME280;16272;48.188;9.964;2023-03-04T08:54:29;96200.03;;;5.65;60.22
29247;BME280;16272;48.188;9.964;2023-03-04T08:56:55;96194.63;;;6.39;60.49
29247;BME280;16272;48.188;9.964;2023-03-04T08:59:21;96202.13;;;4.86;64.92
29247;BME280;16272;48.188;9.964;2023-03-04T09:01:46;96206.00;;;4.93;64.43
29247;BME280;16272;48.188;9.964;2023-03-04T09:04:11;96196.94;;;6.55;62.95
29247;BME280;16272;48.188;9.964;2023-03-04T09:06:37;96205.50;;;5.51;62.47
29247;BME280;16272;48.188;9.964;2023-03-04T09:09:02;96211.34;;;5.67;63.72
29247;BME280;16272;48.188;9.964;2023-03-04T09:11:28;96206.84;;;6.40;60.52
29247;BME280;16272;48.188;9.964;2023-03-04T09:13:54;96200.00;;;7.18;58.24
29247;BME280;16272;48.188;9.964;2023-03-04T09:16:19;96212.53;;;6.12;59.53
29247;BME280;16272;48.188;9.964;2023-03-04T09:18:45;96200.06;;;6.14;63.95
29247;BME280;16272;48.188;9.964;2023-03-04T09:21:10;96214.97;;;5.78;64.10
29247;BME280;16272;48.188;9.964;2023-03-04T09:23:36;96202.69;;;5.89;64.10
29247;BME280;16272;48.188;9.964;2023-03-04T09:26:24;96195.31;;;7.22;60.60
29247;BME280;16272;48.188;9.964;2023-03-04T09:28:54;96200.88;;;5.90;59.66
29247;BME280;16272;48.188;9.964;2023-03-04T09:31:20;96196.75;;;6.92;60.06
29247;BME280;16272;48.188;9.964;2023-03-04T09:33:46;96193.66;;;5.81;59.04
29247;BME280;16272;48.188;9.964;2023-03-04T09:36:13;96194.16;;;5.86;60.38
29247;BME280;16272;48.188;9.964;2023-03-04T09:38:41;96200.81;;;5.79;59.62
29247;BME280;16272;48.188;9.964;2023-03-04T09:41:11;96190.88;;;6.89;58.64
29247;BME280;16272;48.188;9.964;2023-03-04T09:43:38;96184.94;;;7.85;59.45
29247;BME280;16272;48.188;9.964;2023-03-04T09:46:09;96182.56;;;7.94;58.13
29247;BME280;16272;48.188;9.964;2023-03-04T09:48:48;96181.88;;;7.03;60.57
29247;BME280;16272;48.188;9.964;2023-03-04T09:51:20;96188.19;;;7.34;57.77
29247;BME280;16272;48.188;9.964;2023-03-04T09:57:12;96187.97;;;7.92;57.33
29247;BME280;16272;48.188;9.964;2023-03-04T09:59:49;96193.56;;;6.42;57.66
29247;BME280;16272;48.188;9.964;2023-03-04T10:02:38;96196.75;;;6.34;59.93
29247;BME280;16272;48.188;9.964;2023-03-04T10:05:12;96185.03;;;8.27;56.75
29247;BME280;16272;48.188;9.964;2023-03-04T10:07:40;96196.78;;;5.62;60.55
29247;BME280;16272;48.188;9.964;2023-03-04T10:10:17;96190.13;;;6.64;58.79
29247;BME280;16272;48.188;9.964;2023-03-04T10:12:45;96184.09;;;6.62;58.68
29247;BME280;16272;48.188;9.964;2023-03-04T10:18:02;96185.72;;;7.76;54.87
29247;BME280;16272;48.188;9.964;2023-03-04T10:20:43;96176.81;;;7.77;56.05
29247;BME280;16272;48.188;9.964;2023-03-04T10:23:17;96170.03;;;8.38;54.93
29247;BME280;16272;48.188;9.964;2023-03-04T10:25:44;96170.53;;;8.64;53.04
29247;BME280;16272;48.188;9.964;2023-03-04T10:28:25;96167.22;;;8.29;51.37
29247;BME280;16272;48.188;9.964;2023-03-04T10:31:19;96173.09;;;7.13;54.24
29247;BME280;16272;48.188;9.964;2023-03-04T10:33:47;96169.41;;;7.60;53.70
29247;BME280;16272;48.188;9.964;2023-03-04T10:38:59;96165.59;;;9.52;54.66
29247;BME280;16272;48.188;9.964;2023-03-04T10:41:27;96161.72;;;9.56;50.56
29247;BME280;16272;48.188;9.964;2023-03-04T10:46:47;96161.63;;;9.27;52.79
29247;BME280;16272;48.188;9.964;2023-03-04T10:49:16;96162.88;;;7.75;53.22
29247;BME280;16272;48.188;9.964;2023-03-04T10:51:54;96150.81;;;8.36;55.45
29247;BME280;16272;48.188;9.964;2023-03-04T10:54:39;96157.03;;;8.67;54.90
29247;BME280;16272;48.188;9.964;2023-03-04T10:57:18;96155.72;;;8.19;53.66
29247;BME280;16272;48.188;9.964;2023-03-04T10:59:59;96152.84;;;9.36;52.24
29247;BME280;16272;48.188;9.964;2023-03-04T11:02:32;96153.81;;;8.63;51.80
29247;BME280;16272;48.188;9.964;2023-03-04T11:07:49;96143.47;;;9.22;51.93
29247;BME280;16272;48.188;9.964;2023-03-04T11:21:21;96137.00;;;8.32;53.06
29247;BME280;16272;48.188;9.964;2023-03-04T11:23:59;96135.84;;;8.04;52.51
29247;BME280;16272;48.188;9.964;2023-03-04T11:26:45;96134.50;;;9.04;51.45
29247;BME280;16272;48.188;9.964;2023-03-04T11:29:30;96122.06;;;9.04;50.87
29247;BME280;16272;48.188;9.964;2023-03-04T11:32:06;96122.72;;;8.96;50.98
29247;BME280;16272;48.188;9.964;2023-03-04T11:37:05;96125.81;;;9.01;52.28
29247;BME280;16272;48.188;9.964;2023-03-04T11:39:37;96118.16;;;8.68;51.11
29247;BME280;16272;48.188;9.964;2023-03-04T11:42:20;96122.25;;;8.81;52.94
29247;BME280;16272;48.188;9.964;2023-03-04T11:44:51;96114.69;;;8.46;50.80
29247;BME280;16272;48.188;9.964;2023-03-04T12:00:47;96099.25;;;7.55;53.02
29247;BME280;16272;48.188;9.964;2023-03-04T12:03:26;96100.69;;;7.60;53.69
29247;BME280;16272;48.188;9.964;2023-03-04T12:06:23;96082.31;;;8.94;51.81
29247;BME280;16272;48.188;9.964;2023-03-04T12:14:37;96065.44;;;10.52;49.09
29247;BME280;16272;48.188;9.964;2023-03-04T12:23:40;96057.41;;;10.14;48.75
29247;BME280;16272;48.188;9.964;2023-03-04T12:29:06;96061.50;;;9.50;50.54
29247;BME280;16272;48.188;9.964;2023-03-04T12:31:44;96052.28;;;9.73;48.93
29247;BME280;16272;48.188;9.964;2023-03-04T12:42:55;96039.16;;;9.43;50.34
29247;BME280;16272;48.188;9.964;2023-03-04T12:48:13;96040.13;;;9.22;53.15
29247;BME280;16272;48.188;9.964;2023-03-04T12:51:12;96047.22;;;8.61;53.60
29247;BME280;16272;48.188;9.964;2023-03-04T12:58:48;96050.94;;;8.59;54.36
29247;BME280;16272;48.188;9.964;2023-03-04T13:01:22;96044.34;;;8.01;53.91
29247;BME280;16272;48.188;9.964;2023-03-04T13:06:40;96027.56;;;9.24;51.98
29247;BME280;16272;48.188;9.964;2023-03-04T13:09:14;96034.94;;;9.11;52.17
29247;BME280;16272;48.188;9.964;2023-03-04T13:16:46;96038.53;;;8.28;53.89
29247;BME280;16272;48.188;9.964;2023-03-04T13:19:45;96028.94;;;7.64;54.76
29247;BME280;16272;48.188;9.964;2023-03-04T13:22:51;96025.03;;;9.23;52.35
29247;BME280;16272;48.188;9.964;2023-03-04T13:25:43;96025.44;;;9.18;51.89
29247;BME280;16272;48.188;9.964;2023-03-04T13:43:27;96023.44;;;7.77;54.05
29247;BME280;16272;48.188;9.964;2023-03-04T13:45:53;96021.41;;;8.02;54.68
29247;BME280;16272;48.188;9.964;2023-03-04T13:48:30;96016.00;;;8.65;53.45
29247;BME280;16272;48.188;9.964;2023-03-04T13:50:57;96023.56;;;7.97;54.40
29247;BME280;16272;48.188;9.964;2023-03-04T13:53:37;96021.56;;;7.47;56.10
29247;BME280;16272;48.188;9.964;2023-03-04T14:01:50;96022.16;;;7.18;55.51
29247;BME280;16272;48.188;9.964;2023-03-04T14:04:25;96027.06;;;7.76;53.94
29247;BME280;16272;48.188;9.964;2023-03-04T14:06:52;96017.97;;;7.48;54.01
29247;BME280;16272;48.188;9.964;2023-03-04T14:09:24;96020.41;;;8.03;53.47
29247;BME280;16272;48.188;9.964;2023-03-04T14:11:52;96011.84;;;7.47;54.82
29247;BME280;16272;48.188;9.964;2023-03-04T14:14:53;96013.69;;;7.35;54.84
29247;BME280;16272;48.188;9.964;2023-03-04T14:17:24;96021.13;;;6.98;55.28
29247;BME280;16272;48.188;9.964;2023-03-04T14:19:51;96017.72;;;7.18;54.48
29247;BME280;16272;48.188;9.964;2023-03-04T14:22:27;96014.00;;;7.10;54.92
29247;BME280;16272;48.188;9.964;2023-03-04T14:27:31;96015.41;;;6.81;56.94
29247;BME280;16272;48.188;9.964;2023-03-04T14:30:04;96024.09;;;6.50;55.86
29247;BME280;16272;48.188;9.964;2023-03-04T14:32:31;96015.88;;;5.85;56.37
29247;BME280;16272;48.188;9.964;2023-03-04T14:35:00;96020.44;;;6.85;55.20
29247;BME280;16272;48.188;9.964;2023-03-04T14:40:22;96015.47;;;6.36;56.36
29247;BME280;16272;48.188;9.964;2023-03-04T14:42:56;96017.63;;;6.31;55.73
29247;BME280;16272;48.188;9.964;2023-03-04T14:45:22;96010.94;;;5.80;56.42
29247;BME280;16272;48.188;9.964;2023-03-04T14:47:52;96014.59;;;6.13;55.88
29247;BME280;16272;48.188;9.964;2023-03-04T14:50:20;96009.88;;;5.83;55.96
29247;BME280;16272;48.188;9.964;2023-03-04T14:52:48;96019.16;;;6.00;56.02
29247;BME280;16272;48.188;9.964;2023-03-04T14:55:24;96020.84;;;5.65;57.11
29247;BME280;16272;48.188;9.964;2023-03-04T14:58:08;96020.59;;;5.22;57.53
29247;BME280;16272;48.188;9.964;2023-03-04T15:00:36;96015.69;;;5.99;56.07
29247;BME280;16272;48.188;9.964;2023-03-04T15:03:06;96013.22;;;5.03;58.13